sensor_id;sensor_type;location;lat;lon;timestamp;P1;durP1;ratioP1;P2;durP2;ratioP2
49444;SDS011;35323;43.080;-81.378;2023-07-22T00:02:02;11.07;;;8.27;;
49444;SDS011;35323;43.080;-81.378;2023-07-22T00:04:30;10.73;;;7.40;;
49444;SDS011;35323;43.080;-81.378;2023-07-22T00:06:58;8.65;;;7.20;;
49444;SDS011;35323;43.080;-81.378;2023-07-22T00:09:25;8.73;;;7.20;;
49444;SDS011;35323;43.080;-81.378;2023-07-22T00:11:53;6.63;;;5.97;;
49444;SDS011;35323;43.080;-81.378;2023-07-22T00:14:21;9.25;;;6.85;;
49444;SDS011;35323;43.080;-81.378;2023-07-22T00:16:48;8.70;;;6.53;;
49444;SDS011;35323;43.080;-81.378;2023-07-22T00:19:19;7.90;;;6.78;;
49444;SDS011;35323;43.080;-81.378;2023-07-22T00:21:47;12.15;;;7.03;;
49444;SDS011;35323;43.080;-81.378;2023-07-22T00:24:15;7.75;;;6.95;;
49444;SDS011;35323;43.080;-81.378;2023-07-22T00:26:42;8.15;;;6.57;;
49444;SDS011;35323;43.080;-81.378;2023-07-22T00:29:11;9.50;;;7.25;;
49444;SDS011;35323;43.080;-81.378;2023-07-22T00:31:39;8.30;;;7.40;;
49444;SDS011;35323;43.080;-81.378;2023-07-22T00:34:07;12.52;;;7.75;;
49444;SDS011;35323;43.080;-81.378;2023-07-22T00:36:34;9.60;;;7.97;;
49444;SDS011;35323;43.080;-81.378;2023-07-22T00:39:02;9.30;;;6.55;;
49444;SDS011;35323;43.080;-81.378;2023-07-22T00:41:30;8.45;;;6.13;;
49444;SDS011;35323;43.080;-81.378;2023-07-22T00:43:57;9.80;;;7.10;;
49444;SDS011;35323;43.080;-81.378;2023-07-22T00:46:25;7.72;;;6.75;;
49444;SDS011;35323;43.080;-81.378;2023-07-22T00:48:53;8.18;;;6.75;;
49444;SDS011;35323;43.080;-81.378;2023-07-22T00:51:20;8.25;;;7.25;;
49444;SDS011;35323;43.080;-81.378;2023-07-22T00:53:49;9.02;;;7.65;;
49444;SDS011;35323;43.080;-81.378;2023-07-22T00:56:17;9.02;;;7.07;;
49444;SDS011;35323;43.080;-81.378;2023-07-22T00:58:44;8.55;;;6.20;;
49444;SDS011;35323;43.080;-81.378;2023-07-22T01:01:12;8.38;;;6.38;;
49444;SDS011;35323;43.080;-81.378;2023-07-22T01:03:40;6.97;;;6.30;;
49444;SDS011;35323;43.080;-81.378;2023-07-22T01:06:08;8.68;;;7.55;;
49444;SDS011;35323;43.080;-81.378;2023-07-22T01:08:39;12.13;;;7.90;;
49444;SDS011;35323;43.080;-81.378;2023-07-22T01:11:07;14.15;;;7.78;;
49444;SDS011;35323;43.080;-81.378;2023-07-22T01:13:35;9.43;;;6.32;;
49444;SDS011;35323;43.080;-81.378;2023-07-22T01:16:03;8.55;;;7.72;;
49444;SDS011;35323;43.080;-81.378;2023-07-22T01:18:31;8.48;;;7.35;;
49444;SDS011;35323;43.080;-81.378;2023-07-22T01:20:59;8.88;;;6.57;;
49444;SDS011;35323;43.080;-81.378;2023-07-22T01:23:27;8.68;;;7.03;;
49444;SDS011;35323;43.080;-81.378;2023-07-22T01:25:55;9.27;;;7.85;;
49444;SDS011;35323;43.080;-81.378;2023-07-22T01:28:24;10.13;;;7.40;;
49444;SDS011;35323;43.080;-81.378;2023-07-22T01:30:52;8.13;;;7.32;;
49444;SDS011;35323;43.080;-81.378;2023-07-22T01:33:20;8.43;;;6.22;;
49444;SDS011;35323;43.080;-81.378;2023-07-22T01:35:47;10.13;;;8.45;;
49444;SDS011;35323;43.080;-81.378;2023-07-22T01:38:16;10.13;;;7.32;;
49444;SDS011;35323;43.080;-81.378;2023-07-22T01:40:47;9.80;;;6.13;;
49444;SDS011;35323;43.080;-81.378;2023-07-22T01:43:15;10.63;;;8.07;;
49444;SDS011;35323;43.080;-81.378;2023-07-22T01:45:45;11.70;;;7.75;;
49444;SDS011;35323;43.080;-81.378;2023-07-22T01:48:13;10.07;;;7.63;;
49444;SDS011;35323;43.080;-81.378;2023-07-22T01:50:43;10.10;;;8.07;;
49444;SDS011;35323;43.080;-81.378;2023-07-22T01:53:12;19.67;;;9.05;;
49444;SDS011;35323;43.080;-81.378;2023-07-22T01:55:41;9.07;;;6.88;;
49444;SDS011;35323;43.080;-81.378;2023-07-22T01:58:08;7.18;;;6.35;;
49444;SDS011;35323;43.080;-81.378;2023-07-22T02:00:40;11.40;;;9.25;;
49444;SDS011;35323;43.080;-81.378;2023-07-22T02:03:07;10.73;;;7.63;;
49444;SDS011;35323;43.080;-81.378;2023-07-22T02:05:35;6.93;;;6.10;;
49444;SDS011;35323;43.080;-81.378;2023-07-22T02:08:03;10.10;;;7.90;;
49444;SDS011;35323;43.080;-81.378;2023-07-22T02:10:31;8.85;;;7.90;;
49444;SDS011;35323;43.080;-81.378;2023-07-22T02:12:58;9.50;;;7.95;;
49444;SDS011;35323;43.080;-81.378;2023-07-22T02:15:26;9.57;;;6.88;;
49444;SDS011;35323;43.080;-81.378;2023-07-22T02:17:55;10.27;;;7.32;;
49444;SDS011;35323;43.080;-81.378;2023-07-22T02:20:23;12.70;;;10.68;;
49444;SDS011;35323;43.080;-81.378;2023-07-22T02:22:54;9.82;;;8.93;;
49444;SDS011;35323;43.080;-81.378;2023-07-22T02:25:22;11.35;;;8.00;;
49444;SDS011;35323;43.080;-81.378;2023-07-22T02:27:50;11.23;;;8.27;;
49444;SDS011;35323;43.080;-81.378;2023-07-22T02:30:18;9.07;;;7.30;;
49444;SDS011;35323;43.080;-81.378;2023-07-22T02:32:46;9.75;;;7.57;;
49444;SDS011;35323;43.080;-81.378;2023-07-22T02:35:18;12.27;;;8.70;;
49444;SDS011;35323;43.080;-81.378;2023-07-22T02:37:46;9.65;;;6.85;;
49444;SDS011;35323;43.080;-81.378;2023-07-22T02:40:14;13.57;;;7.75;;
49444;SDS011;35323;43.080;-81.378;2023-07-22T02:42:41;9.40;;;8.35;;
49444;SDS011;35323;43.080;-81.378;2023-07-22T02:45:09;8.32;;;6.07;;
49444;SDS011;35323;43.080;-81.378;2023-07-22T02:47:38;9.30;;;7.63;;
49444;SDS011;35323;43.080;-81.378;2023-07-22T02:50:06;10.77;;;9.77;;
49444;SDS011;35323;43.080;-81.378;2023-07-22T02:52:34;10.02;;;7.95;;
49444;SDS011;35323;43.080;-81.378;2023-07-22T02:55:13;8.50;;;6.57;;
49444;SDS011;35323;43.080;-81.378;2023-07-22T02:57:41;10.23;;;6.63;;
49444;SDS011;35323;43.080;-81.378;2023-07-22T03:00:09;9.27;;;7.00;;
49444;SDS011;35323;43.080;-81.378;2023-07-22T03:02:40;11.25;;;8.10;;
49444;SDS011;35323;43.080;-81.378;2023-07-22T03:05:08;9.13;;;7.28;;
49444;SDS011;35323;43.080;-81.378;2023-07-22T03:07:37;9.52;;;7.80;;
49444;SDS011;35323;43.080;-81.378;2023-07-22T03:10:08;8.32;;;7.00;;
49444;SDS011;35323;43.080;-81.378;2023-07-22T03:12:36;8.80;;;6.15;;
49444;SDS011;35323;43.080;-81.378;2023-07-22T03:15:04;11.10;;;8.07;;
49444;SDS011;35323;43.080;-81.378;2023-07-22T03:17:36;9.23;;;8.02;;
49444;SDS011;35323;43.080;-81.378;2023-07-22T03:20:04;10.23;;;7.28;;
49444;SDS011;35323;43.080;-81.378;2023-07-22T03:22:41;12.52;;;8.20;;
49444;SDS011;35323;43.080;-81.378;2023-07-22T03:25:09;12.38;;;8.23;;
49444;SDS011;35323;43.080;-81.378;2023-07-22T03:27:37;11.57;;;9.20;;
49444;SDS011;35323;43.080;-81.378;2023-07-22T03:30:06;12.55;;;8.70;;
49444;SDS011;35323;43.080;-81.378;2023-07-22T03:32:46;11.32;;;7.90;;
49444;SDS011;35323;43.080;-81.378;2023-07-22T03:35:20;12.20;;;9.48;;
49444;SDS011;35323;43.080;-81.378;2023-07-22T03:37:48;13.05;;;9.40;;
49444;SDS011;35323;43.080;-81.378;2023-07-22T03:40:16;10.52;;;7.70;;
49444;SDS011;35323;43.080;-81.378;2023-07-22T03:42:48;11.73;;;7.82;;
49444;SDS011;35323;43.080;-81.378;2023-07-22T03:45:16;10.23;;;8.57;;
49444;SDS011;35323;43.080;-81.378;2023-07-22T03:47:44;14.25;;;8.23;;
49444;SDS011;35323;43.080;-81.378;2023-07-22T03:50:13;12.60;;;9.20;;
49444;SDS011;35323;43.080;-81.378;2023-07-22T03:52:42;13.68;;;7.30;;
49444;SDS011;35323;43.080;-81.378;2023-07-22T03:55:10;11.38;;;7.28;;
49444;SDS011;35323;43.080;-81.378;2023-07-22T03:57:37;13.38;;;9.80;;
49444;SDS011;35323;43.080;-81.378;2023-07-22T04:00:05;9.50;;;7.22;;
49444;SDS011;35323;43.080;-81.378;2023-07-22T04:02:36;10.13;;;8.73;;
49444;SDS011;35323;43.080;-81.378;2023-07-22T04:05:04;9.88;;;8.25;;
49444;SDS011;35323;43.080;-81.378;2023-07-22T04:07:32;8.60;;;7.43;;
49444;SDS011;35323;43.080;-81.378;2023-07-22T04:10:00;10.65;;;8.00;;
49444;SDS011;35323;43.080;-81.378;2023-07-22T04:12:28;10.93;;;8.00;;
49444;SDS011;35323;43.080;-81.378;2023-07-22T04:14:56;13.65;;;9.05;;
49444;SDS011;35323;43.080;-81.378;2023-07-22T04:17:24;12.93;;;8.07;;
49444;SDS011;35323;43.080;-81.378;2023-07-22T04:19:51;9.35;;;8.43;;
49444;SDS011;35323;43.080;-81.378;2023-07-22T04:22:20;10.90;;;8.48;;
49444;SDS011;35323;43.080;-81.378;2023-07-22T04:24:48;10.20;;;7.25;;
49444;SDS011;35323;43.080;-81.378;2023-07-22T04:27:16;10.32;;;8.70;;
49444;SDS011;35323;43.080;-81.378;2023-07-22T04:29:44;10.70;;;8.40;;
49444;SDS011;35323;43.080;-81.378;2023-07-22T04:32:12;10.70;;;7.35;;
49444;SDS011;35323;43.080;-81.378;2023-07-22T04:34:40;8.43;;;7.47;;
49444;SDS011;35323;43.080;-81.378;2023-07-22T04:37:08;9.88;;;7.32;;
49444;SDS011;35323;43.080;-81.378;2023-07-22T04:39:38;12.63;;;7.88;;
49444;SDS011;35323;43.080;-81.378;2023-07-22T04:42:06;10.93;;;8.38;;
49444;SDS011;35323;43.080;-81.378;2023-07-22T04:44:34;10.00;;;7.57;;
49444;SDS011;35323;43.080;-81.378;2023-07-22T04:47:01;12.43;;;7.32;;
49444;SDS011;35323;43.080;-81.378;2023-07-22T04:49:29;10.02;;;8.43;;
49444;SDS011;35323;43.080;-81.378;2023-07-22T04:51:57;12.98;;;8.18;;
49444;SDS011;35323;43.080;-81.378;2023-07-22T04:54:24;10.38;;;7.47;;
49444;SDS011;35323;43.080;-81.378;2023-07-22T04:56:55;10.43;;;8.70;;
49444;SDS011;35323;43.080;-81.378;2023-07-22T04:59:22;14.55;;;8.63;;
49444;SDS011;35323;43.080;-81.378;2023-07-22T05:01:50;10.93;;;9.55;;
49444;SDS011;35323;43.080;-81.378;2023-07-22T05:04:19;11.02;;;8.45;;
49444;SDS011;35323;43.080;-81.378;2023-07-22T05:06:46;15.20;;;8.95;;
49444;SDS011;35323;43.080;-81.378;2023-07-22T05:09:14;12.80;;;8.98;;
49444;SDS011;35323;43.080;-81.378;2023-07-22T05:11:41;11.32;;;8.60;;
49444;SDS011;35323;43.080;-81.378;2023-07-22T05:14:12;12.25;;;8.40;;
49444;SDS011;35323;43.080;-81.378;2023-07-22T05:16:42;13.20;;;8.90;;
49444;SDS011;35323;43.080;-81.378;2023-07-22T05:19:10;10.63;;;8.23;;
49444;SDS011;35323;43.080;-81.378;2023-07-22T05:21:38;10.82;;;7.70;;
49444;SDS011;35323;43.080;-81.378;2023-07-22T05:24:06;11.60;;;6.97;;
49444;SDS011;35323;43.080;-81.378;2023-07-22T05:26:34;12.98;;;8.38;;
49444;SDS011;35323;43.080;-81.378;2023-07-22T05:29:01;13.27;;;8.55;;
49444;SDS011;35323;43.080;-81.378;2023-07-22T05:31:30;12.45;;;8.73;;
49444;SDS011;35323;43.080;-81.378;2023-07-22T05:33:57;10.40;;;7.63;;
49444;SDS011;35323;43.080;-81.378;2023-07-22T05:36:26;8.98;;;7.50;;
49444;SDS011;35323;43.080;-81.378;2023-07-22T05:38:54;11.00;;;7.82;;
49444;SDS011;35323;43.080;-81.378;2023-07-22T05:41:21;11.38;;;10.20;;
49444;SDS011;35323;43.080;-81.378;2023-07-22T05:43:50;12.77;;;8.40;;
49444;SDS011;35323;43.080;-81.378;2023-07-22T05:46:17;11.38;;;8.95;;
49444;SDS011;35323;43.080;-81.378;2023-07-22T05:48:48;12.52;;;9.02;;
49444;SDS011;35323;43.080;-81.378;2023-07-22T05:51:15;17.13;;;10.25;;
49444;SDS011;35323;43.080;-81.378;2023-07-22T05:53:43;9.93;;;8.60;;
49444;SDS011;35323;43.080;-81.378;2023-07-22T05:56:11;9.57;;;8.27;;
49444;SDS011;35323;43.080;-81.378;2023-07-22T05:58:38;11.82;;;8.75;;
49444;SDS011;35323;43.080;-81.378;2023-07-22T06:01:07;11.02;;;8.13;;
49444;SDS011;35323;43.080;-81.378;2023-07-22T06:03:38;12.25;;;9.00;;
49444;SDS011;35323;43.080;-81.378;2023-07-22T06:06:06;12.05;;;10.13;;
49444;SDS011;35323;43.080;-81.378;2023-07-22T06:08:34;13.57;;;11.25;;
49444;SDS011;35323;43.080;-81.378;2023-07-22T06:11:01;11.73;;;7.97;;
49444;SDS011;35323;43.080;-81.378;2023-07-22T06:13:29;9.60;;;8.48;;
49444;SDS011;35323;43.080;-81.378;2023-07-22T06:15:56;10.93;;;9.82;;
49444;SDS011;35323;43.080;-81.378;2023-07-22T06:18:27;13.50;;;9.18;;
49444;SDS011;35323;43.080;-81.378;2023-07-22T06:20:55;8.95;;;7.95;;
49444;SDS011;35323;43.080;-81.378;2023-07-22T06:23:22;12.18;;;9.38;;
49444;SDS011;35323;43.080;-81.378;2023-07-22T06:25:50;11.38;;;8.63;;
49444;SDS011;35323;43.080;-81.378;2023-07-22T06:28:19;16.65;;;9.95;;
49444;SDS011;35323;43.080;-81.378;2023-07-22T06:30:46;9.38;;;8.25;;
49444;SDS011;35323;43.080;-81.378;2023-07-22T06:33:14;10.85;;;9.57;;
49444;SDS011;35323;43.080;-81.378;2023-07-22T06:35:43;10.85;;;8.95;;
49444;SDS011;35323;43.080;-81.378;2023-07-22T06:38:15;16.33;;;7.78;;
49444;SDS011;35323;43.080;-81.378;2023-07-22T06:40:43;9.45;;;7.53;;
49444;SDS011;35323;43.080;-81.378;2023-07-22T06:43:11;9.75;;;7.60;;
49444;SDS011;35323;43.080;-81.378;2023-07-22T06:45:38;10.35;;;7.90;;
49444;SDS011;35323;43.080;-81.378;2023-07-22T06:48:06;10.52;;;8.13;;
49444;SDS011;35323;43.080;-81.378;2023-07-22T06:50:33;10.85;;;8.32;;
49444;SDS011;35323;43.080;-81.378;2023-07-22T06:53:01;13.55;;;8.85;;
49444;SDS011;35323;43.080;-81.378;2023-07-22T06:55:29;11.38;;;7.60;;
49444;SDS011;35323;43.080;-81.378;2023-07-22T06:57:56;10.65;;;7.57;;
49444;SDS011;35323;43.080;-81.378;2023-07-22T07:00:24;10.50;;;7.97;;
49444;SDS011;35323;43.080;-81.378;2023-07-22T07:02:52;9.43;;;6.28;;
49444;SDS011;35323;43.080;-81.378;2023-07-22T07:05:20;8.07;;;7.18;;
49444;SDS011;35323;43.080;-81.378;2023-07-22T07:07:48;14.20;;;8.25;;
49444;SDS011;35323;43.080;-81.378;2023-07-22T07:10:17;9.77;;;7.22;;
49444;SDS011;35323;43.080;-81.378;2023-07-22T07:12:45;10.65;;;7.43;;
49444;SDS011;35323;43.080;-81.378;2023-07-22T07:15:13;9.13;;;7.00;;
49444;SDS011;35323;43.080;-81.378;2023-07-22T07:17:41;9.38;;;7.28;;
49444;SDS011;35323;43.080;-81.378;2023-07-22T07:20:09;7.90;;;7.05;;
49444;SDS011;35323;43.080;-81.378;2023-07-22T07:22:37;8.85;;;6.10;;
49444;SDS011;35323;43.080;-81.378;2023-07-22T07:25:05;9.48;;;6.97;;
49444;SDS011;35323;43.080;-81.378;2023-07-22T07:27:32;12.15;;;8.63;;
49444;SDS011;35323;43.080;-81.378;2023-07-22T07:30:00;10.63;;;8.18;;
49444;SDS011;35323;43.080;-81.378;2023-07-22T07:32:28;7.88;;;6.63;;
49444;SDS011;35323;43.080;-81.378;2023-07-22T07:34:55;9.63;;;7.53;;
49444;SDS011;35323;43.080;-81.378;2023-07-22T07:37:23;9.82;;;6.60;;
49444;SDS011;35323;43.080;-81.378;2023-07-22T07:39:51;8.13;;;7.22;;
49444;SDS011;35323;43.080;-81.378;2023-07-22T07:42:19;10.50;;;7.85;;
49444;SDS011;35323;43.080;-81.378;2023-07-22T07:44:46;9.65;;;7.35;;
49444;SDS011;35323;43.080;-81.378;2023-07-22T07:47:14;11.90;;;6.97;;
49444;SDS011;35323;43.080;-81.378;2023-07-22T07:49:42;10.18;;;8.00;;
49444;SDS011;35323;43.080;-81.378;2023-07-22T07:52:09;9.15;;;7.40;;
49444;SDS011;35323;43.080;-81.378;2023-07-22T07:54:37;8.95;;;6.72;;
49444;SDS011;35323;43.080;-81.378;2023-07-22T07:57:04;9.93;;;8.02;;
49444;SDS011;35323;43.080;-81.378;2023-07-22T07:59:33;8.82;;;6.63;;
49444;SDS011;35323;43.080;-81.378;2023-07-22T08:02:03;10.10;;;8.10;;
49444;SDS011;35323;43.080;-81.378;2023-07-22T08:04:36;9.60;;;8.18;;
49444;SDS011;35323;43.080;-81.378;2023-07-22T08:07:05;8.98;;;7.15;;
49444;SDS011;35323;43.080;-81.378;2023-07-22T08:09:33;9.57;;;6.90;;
49444;SDS011;35323;43.080;-81.378;2023-07-22T08:12:01;9.65;;;7.50;;
49444;SDS011;35323;43.080;-81.378;2023-07-22T08:14:30;12.13;;;8.05;;
49444;SDS011;35323;43.080;-81.378;2023-07-22T08:16:57;10.57;;;8.07;;
49444;SDS011;35323;43.080;-81.378;2023-07-22T08:19:28;8.00;;;6.13;;
49444;SDS011;35323;43.080;-81.378;2023-07-22T08:21:56;6.95;;;6.03;;
49444;SDS011;35323;43.080;-81.378;2023-07-22T08:24:24;8.07;;;7.28;;
49444;SDS011;35323;43.080;-81.378;2023-07-22T08:26:51;12.27;;;7.53;;
49444;SDS011;35323;43.080;-81.378;2023-07-22T08:29:19;8.63;;;5.95;;
49444;SDS011;35323;43.080;-81.378;2023-07-22T08:31:46;9.13;;;7.43;;
49444;SDS011;35323;43.080;-81.378;2023-07-22T08:34:14;9.57;;;6.35;;
49444;SDS011;35323;43.080;-81.378;2023-07-22T08:36:42;9.77;;;8.52;;
49444;SDS011;35323;43.080;-81.378;2023-07-22T08:39:10;11.85;;;7.82;;
49444;SDS011;35323;43.080;-81.378;2023-07-22T08:41:38;9.55;;;5.85;;
49444;SDS011;35323;43.080;-81.378;2023-07-22T08:44:06;7.85;;;6.28;;
49444;SDS011;35323;43.080;-81.378;2023-07-22T08:46:35;9.68;;;7.53;;
49444;SDS011;35323;43.080;-81.378;2023-07-22T08:49:04;8.52;;;6.57;;
49444;SDS011;35323;43.080;-81.378;2023-07-22T08:51:33;8.88;;;6.45;;
49444;SDS011;35323;43.080;-81.378;2023-07-22T08:54:01;7.10;;;6.40;;
49444;SDS011;35323;43.080;-81.378;2023-07-22T08:56:38;9.20;;;6.93;;
49444;SDS011;35323;43.080;-81.378;2023-07-22T08:59:06;8.93;;;7.00;;
49444;SDS011;35323;43.080;-81.378;2023-07-22T09:01:38;9.60;;;6.55;;
49444;SDS011;35323;43.080;-81.378;2023-07-22T09:04:07;6.53;;;5.68;;
49444;SDS011;35323;43.080;-81.378;2023-07-22T09:06:35;8.50;;;6.40;;
49444;SDS011;35323;43.080;-81.378;2023-07-22T09:09:03;9.25;;;5.70;;
49444;SDS011;35323;43.080;-81.378;2023-07-22T09:11:35;7.65;;;6.32;;
49444;SDS011;35323;43.080;-81.378;2023-07-22T09:14:03;7.57;;;6.00;;
49444;SDS011;35323;43.080;-81.378;2023-07-22T09:16:35;9.65;;;6.30;;
49444;SDS011;35323;43.080;-81.378;2023-07-22T09:19:04;9.75;;;8.23;;
49444;SDS011;35323;43.080;-81.378;2023-07-22T09:21:32;7.93;;;7.13;;
49444;SDS011;35323;43.080;-81.378;2023-07-22T09:24:19;12.13;;;8.45;;
49444;SDS011;35323;43.080;-81.378;2023-07-22T09:26:50;10.10;;;6.30;;
49444;SDS011;35323;43.080;-81.378;2023-07-22T09:29:18;8.85;;;7.35;;
49444;SDS011;35323;43.080;-81.378;2023-07-22T09:31:49;11.07;;;7.63;;
49444;SDS011;35323;43.080;-81.378;2023-07-22T09:34:17;8.63;;;7.45;;
49444;SDS011;35323;43.080;-81.378;2023-07-22T09:36:53;10.75;;;6.75;;
49444;SDS011;35323;43.080;-81.378;2023-07-22T09:39:21;9.55;;;7.32;;
49444;SDS011;35323;43.080;-81.378;2023-07-22T09:41:49;10.43;;;6.95;;
49444;SDS011;35323;43.080;-81.378;2023-07-22T09:44:17;9.65;;;6.43;;
49444;SDS011;35323;43.080;-81.378;2023-07-22T09:46:50;10.52;;;6.50;;
49444;SDS011;35323;43.080;-81.378;2023-07-22T09:49:18;11.00;;;7.22;;
49444;SDS011;35323;43.080;-81.378;2023-07-22T09:51:50;10.52;;;6.85;;
49444;SDS011;35323;43.080;-81.378;2023-07-22T09:54:29;8.02;;;5.60;;
49444;SDS011;35323;43.080;-81.378;2023-07-22T09:56:58;8.07;;;5.90;;
49444;SDS011;35323;43.080;-81.378;2023-07-22T09:59:26;8.73;;;6.45;;
49444;SDS011;35323;43.080;-81.378;2023-07-22T10:01:56;6.55;;;5.82;;
49444;SDS011;35323;43.080;-81.378;2023-07-22T10:04:31;7.55;;;5.22;;
49444;SDS011;35323;43.080;-81.378;2023-07-22T10:07:00;8.43;;;7.60;;
49444;SDS011;35323;43.080;-81.378;2023-07-22T10:09:28;9.32;;;6.82;;
49444;SDS011;35323;43.080;-81.378;2023-07-22T10:11:58;7.85;;;5.10;;
49444;SDS011;35323;43.080;-81.378;2023-07-22T10:14:25;7.85;;;5.68;;
49444;SDS011;35323;43.080;-81.378;2023-07-22T10:16:57;8.82;;;6.47;;
49444;SDS011;35323;43.080;-81.378;2023-07-22T10:19:26;5.30;;;4.63;;
49444;SDS011;35323;43.080;-81.378;2023-07-22T10:21:54;7.75;;;5.55;;
49444;SDS011;35323;43.080;-81.378;2023-07-22T10:24:21;7.15;;;6.43;;
49444;SDS011;35323;43.080;-81.378;2023-07-22T10:26:49;11.45;;;7.00;;
49444;SDS011;35323;43.080;-81.378;2023-07-22T10:29:18;8.68;;;6.00;;
49444;SDS011;35323;43.080;-81.378;2023-07-22T10:31:47;7.57;;;6.00;;
49444;SDS011;35323;43.080;-81.378;2023-07-22T10:36:47;7.82;;;6.00;;
49444;SDS011;35323;43.080;-81.378;2023-07-22T10:39:32;12.30;;;6.47;;
49444;SDS011;35323;43.080;-81.378;2023-07-22T10:42:03;7.85;;;7.07;;
49444;SDS011;35323;43.080;-81.378;2023-07-22T10:44:37;9.93;;;7.15;;
49444;SDS011;35323;43.080;-81.378;2023-07-22T10:47:07;11.07;;;7.95;;
49444;SDS011;35323;43.080;-81.378;2023-07-22T10:49:47;9.93;;;7.80;;
49444;SDS011;35323;43.080;-81.378;2023-07-22T10:52:30;7.30;;;5.82;;
49444;SDS011;35323;43.080;-81.378;2023-07-22T10:55:04;9.50;;;6.13;;
49444;SDS011;35323;43.080;-81.378;2023-07-22T10:57:50;8.80;;;6.13;;
49444;SDS011;35323;43.080;-81.378;2023-07-22T11:00:20;8.00;;;5.70;;
49444;SDS011;35323;43.080;-81.378;2023-07-22T11:03:11;8.82;;;6.35;;
49444;SDS011;35323;43.080;-81.378;2023-07-22T11:05:47;7.35;;;3.92;;
49444;SDS011;35323;43.080;-81.378;2023-07-22T11:08:16;9.50;;;6.60;;
49444;SDS011;35323;43.080;-81.378;2023-07-22T11:10:53;8.55;;;4.88;;
49444;SDS011;35323;43.080;-81.378;2023-07-22T11:13:27;5.38;;;4.88;;
49444;SDS011;35323;43.080;-81.378;2023-07-22T11:15:58;8.63;;;6.45;;
49444;SDS011;35323;43.080;-81.378;2023-07-22T11:18:36;5.35;;;4.78;;
49444;SDS011;35323;43.080;-81.378;2023-07-22T11:21:07;7.22;;;4.97;;
49444;SDS011;35323;43.080;-81.378;2023-07-22T11:23:35;5.55;;;4.70;;
49444;SDS011;35323;43.080;-81.378;2023-07-22T11:26:03;4.57;;;4.18;;
49444;SDS011;35323;43.080;-81.378;2023-07-22T11:28:31;7.25;;;6.55;;
49444;SDS011;35323;43.080;-81.378;2023-07-22T11:30:59;6.65;;;5.18;;
49444;SDS011;35323;43.080;-81.378;2023-07-22T11:33:37;6.40;;;4.72;;
49444;SDS011;35323;43.080;-81.378;2023-07-22T11:36:05;5.40;;;4.25;;
49444;SDS011;35323;43.080;-81.378;2023-07-22T11:38:36;8.38;;;7.35;;
49444;SDS011;35323;43.080;-81.378;2023-07-22T11:41:04;12.27;;;8.02;;
49444;SDS011;35323;43.080;-81.378;2023-07-22T11:43:31;10.00;;;8.85;;
49444;SDS011;35323;43.080;-81.378;2023-07-22T11:45:59;9.18;;;7.60;;
49444;SDS011;35323;43.080;-81.378;2023-07-22T11:48:27;11.35;;;6.50;;
49444;SDS011;35323;43.080;-81.378;2023-07-22T11:50:58;8.02;;;6.63;;
49444;SDS011;35323;43.080;-81.378;2023-07-22T11:53:26;9.30;;;7.55;;
49444;SDS011;35323;43.080;-81.378;2023-07-22T11:55:57;11.27;;;8.85;;
49444;SDS011;35323;43.080;-81.378;2023-07-22T11:58:25;8.32;;;7.40;;
49444;SDS011;35323;43.080;-81.378;2023-07-22T12:01:06;8.35;;;6.65;;
49444;SDS011;35323;43.080;-81.378;2023-07-22T12:03:34;14.07;;;9.95;;
49444;SDS011;35323;43.080;-81.378;2023-07-22T12:06:03;10.85;;;8.65;;
49444;SDS011;35323;43.080;-81.378;2023-07-22T12:08:31;10.75;;;8.88;;
49444;SDS011;35323;43.080;-81.378;2023-07-22T12:10:58;16.40;;;9.68;;
49444;SDS011;35323;43.080;-81.378;2023-07-22T12:13:26;10.88;;;8.45;;
49444;SDS011;35323;43.080;-81.378;2023-07-22T12:16:00;11.80;;;8.38;;
49444;SDS011;35323;43.080;-81.378;2023-07-22T12:18:40;10.63;;;7.47;;
49444;SDS011;35323;43.080;-81.378;2023-07-22T12:21:07;7.90;;;5.53;;
49444;SDS011;35323;43.080;-81.378;2023-07-22T12:23:36;7.88;;;6.30;;
49444;SDS011;35323;43.080;-81.378;2023-07-22T12:26:05;9.95;;;8.32;;
49444;SDS011;35323;43.080;-81.378;2023-07-22T12:28:32;9.18;;;7.68;;
49444;SDS011;35323;43.080;-81.378;2023-07-22T12:31:00;9.65;;;7.63;;
49444;SDS011;35323;43.080;-81.378;2023-07-22T12:33:28;9.95;;;7.45;;
49444;SDS011;35323;43.080;-81.378;2023-07-22T12:35:56;8.20;;;6.15;;
49444;SDS011;35323;43.080;-81.378;2023-07-22T12:38:24;8.60;;;7.30;;
49444;SDS011;35323;43.080;-81.378;2023-07-22T12:40:52;9.07;;;6.72;;
49444;SDS011;35323;43.080;-81.378;2023-07-22T12:43:19;8.35;;;5.68;;
49444;SDS011;35323;43.080;-81.378;2023-07-22T12:45:47;11.93;;;7.40;;
49444;SDS011;35323;43.080;-81.378;2023-07-22T12:48:15;12.40;;;8.52;;
49444;SDS011;35323;43.080;-81.378;2023-07-22T12:50:45;9.85;;;6.80;;
49444;SDS011;35323;43.080;-81.378;2023-07-22T12:53:14;7.93;;;7.25;;
49444;SDS011;35323;43.080;-81.378;2023-07-22T12:55:42;6.50;;;5.90;;
49444;SDS011;35323;43.080;-81.378;2023-07-22T12:58:10;9.85;;;7.53;;
49444;SDS011;35323;43.080;-81.378;2023-07-22T13:00:39;8.75;;;5.95;;
49444;SDS011;35323;43.080;-81.378;2023-07-22T13:03:10;7.13;;;5.03;;
49444;SDS011;35323;43.080;-81.378;2023-07-22T13:05:38;7.97;;;5.85;;
49444;SDS011;35323;43.080;-81.378;2023-07-22T13:08:05;5.07;;;3.97;;
49444;SDS011;35323;43.080;-81.378;2023-07-22T13:10:33;6.43;;;5.00;;
49444;SDS011;35323;43.080;-81.378;2023-07-22T13:13:03;6.28;;;4.22;;
49444;SDS011;35323;43.080;-81.378;2023-07-22T13:15:31;5.75;;;3.75;;
49444;SDS011;35323;43.080;-81.378;2023-07-22T13:17:59;4.90;;;3.72;;
49444;SDS011;35323;43.080;-81.378;2023-07-22T13:20:27;2.13;;;1.80;;
49444;SDS011;35323;43.080;-81.378;2023-07-22T13:22:55;5.65;;;3.85;;
49444;SDS011;35323;43.080;-81.378;2023-07-22T13:25:23;5.22;;;3.97;;
49444;SDS011;35323;43.080;-81.378;2023-07-22T13:27:50;5.95;;;3.83;;
49444;SDS011;35323;43.080;-81.378;2023-07-22T13:30:18;4.72;;;4.32;;
49444;SDS011;35323;43.080;-81.378;2023-07-22T13:32:46;6.20;;;5.25;;
49444;SDS011;35323;43.080;-81.378;2023-07-22T13:35:13;6.07;;;3.85;;
49444;SDS011;35323;43.080;-81.378;2023-07-22T13:37:41;7.25;;;4.50;;
49444;SDS011;35323;43.080;-81.378;2023-07-22T13:40:09;8.18;;;5.05;;
49444;SDS011;35323;43.080;-81.378;2023-07-22T13:42:38;6.80;;;4.88;;
49444;SDS011;35323;43.080;-81.378;2023-07-22T13:45:06;8.38;;;5.38;;
49444;SDS011;35323;43.080;-81.378;2023-07-22T13:47:34;9.10;;;6.57;;
49444;SDS011;35323;43.080;-81.378;2023-07-22T13:50:01;8.05;;;5.03;;
49444;SDS011;35323;43.080;-81.378;2023-07-22T13:52:29;7.90;;;4.40;;
49444;SDS011;35323;43.080;-81.378;2023-07-22T13:54:57;11.38;;;5.20;;
49444;SDS011;35323;43.080;-81.378;2023-07-22T13:57:25;4.82;;;3.88;;
49444;SDS011;35323;43.080;-81.378;2023-07-22T13:59:52;5.65;;;4.70;;
49444;SDS011;35323;43.080;-81.378;2023-07-22T14:02:20;5.43;;;4.57;;
49444;SDS011;35323;43.080;-81.378;2023-07-22T14:04:47;6.05;;;4.28;;
49444;SDS011;35323;43.080;-81.378;2023-07-22T14:07:15;7.68;;;5.25;;
49444;SDS011;35323;43.080;-81.378;2023-07-22T14:09:44;6.63;;;4.38;;
49444;SDS011;35323;43.080;-81.378;2023-07-22T14:12:12;6.22;;;4.57;;
49444;SDS011;35323;43.080;-81.378;2023-07-22T14:14:39;4.90;;;3.67;;
49444;SDS011;35323;43.080;-81.378;2023-07-22T14:17:07;5.70;;;4.38;;
49444;SDS011;35323;43.080;-81.378;2023-07-22T14:19:34;4.78;;;3.95;;
49444;SDS011;35323;43.080;-81.378;2023-07-22T14:22:02;7.80;;;4.70;;
49444;SDS011;35323;43.080;-81.378;2023-07-22T14:24:30;7.13;;;5.43;;
49444;SDS011;35323;43.080;-81.378;2023-07-22T14:26:58;8.65;;;5.45;;
49444;SDS011;35323;43.080;-81.378;2023-07-22T14:29:25;8.55;;;4.63;;